»·PEaware :: SWA717 KILM-KDCA

SWA717 :: KILM-KDCA

FLIGHT INFORMATION

Flight Status: Arrived
Operator:
Southwest Airlines
More flights by this operator :: More flights under this callsign
Pilot: Ty S. (2873)
Aircraft: BOEING 737-300
(B733)
More flights by this aircraft type
Origin: KILM Wilmington Intl
United States
Destination: KDCA Ronald Reagan Washington Natl
United States
More flights between these airports :: More routes between these airports
Route:
File this flight plan on PilotEdge
Remarks:
Altitude:
(Current/Filed)
0ft
Speed:
(Current/Filed)
0kts
Departed: 25-Jun-16 11:55 AM
Arrived: 25-Jun-16 12:49 PM
Distance/Time
Traveled:
278nm/0:54
Distance/Time
To Go:
Arrived

Flight Plot

Page will automatically refresh every two minutes.


Map Options




Map Legend


Flown Route
Filed Route
Departure Airport
Arrival Airport
Navaid (VOR, NDB)
Fix

Horizontal Profiles

Position Reports

Time Latitude Longitude Heading Altitude Ground
Speed
25-Jun-16 11:35 34.266127 -77.908903 5 39ft 0kts
25-Jun-16 11:36 34.266127 -77.908903 5 39ft 0kts
25-Jun-16 11:37 34.266127 -77.908903 5 39ft 0kts
25-Jun-16 11:38 34.266127 -77.908903 5 39ft 0kts
25-Jun-16 11:39 34.266127 -77.908903 5 39ft 0kts
25-Jun-16 11:40 34.266127 -77.908903 5 39ft 0kts
25-Jun-16 11:41 34.266127 -77.908903 5 39ft 0kts
25-Jun-16 11:42 34.266045 -77.908912 5 39ft 0kts
25-Jun-16 11:43 34.265666 -77.909003 36 39ft 0kts
25-Jun-16 11:44 34.265666 -77.909003 36 39ft 0kts
25-Jun-16 11:45 34.265666 -77.909003 36 39ft 0kts
25-Jun-16 11:46 34.267164 -77.906223 48 39ft 19kts
25-Jun-16 11:47 34.271992 -77.907459 329 39ft 20kts
25-Jun-16 11:48 34.276756 -77.909637 349 39ft 16kts
25-Jun-16 11:49 34.280484 -77.910069 35 39ft 0kts
25-Jun-16 11:50 34.280673 -77.908910 154 39ft 0kts
25-Jun-16 11:51 34.265420 -77.901836 156 353ft 144kts
25-Jun-16 11:52 34.237117 -77.864969 71 2781ft 177kts
25-Jun-16 11:53 34.289415 -77.848730 7 4028ft 260kts
25-Jun-16 11:54 34.366853 -77.838823 4 6492ft 291kts
25-Jun-16 11:55 34.443432 -77.831922 2 9636ft 289kts
25-Jun-16 11:56 34.529585 -77.824731 2 11215ft 340kts
25-Jun-16 11:57 34.624832 -77.816770 1 13976ft 353kts
25-Jun-16 11:58 34.724329 -77.808471 1 16616ft 366kts
25-Jun-16 11:59 34.827295 -77.799863 1 18969ft 379kts
25-Jun-16 12:00 34.933808 -77.790932 0 21134ft 391kts
25-Jun-16 12:01 35.043429 -77.781717 0 23090ft 402kts
25-Jun-16 12:02 35.155874 -77.772236 0 24880ft 412kts
25-Jun-16 12:03 35.271422 -77.762469 0 26512ft 422kts
25-Jun-16 12:04 35.389220 -77.752481 0 27977ft 431kts
25-Jun-16 12:05 35.509671 -77.742223 0 29603ft 432kts
25-Jun-16 12:06 35.626963 -77.732214 0 31495ft 423kts
25-Jun-16 12:07 35.739662 -77.722579 0 33104ft 417kts
25-Jun-16 12:08 35.845311 -77.711858 0 34305ft 415kts
25-Jun-16 12:09 35.959391 -77.702979 359 35174ft 417kts
25-Jun-16 12:10 36.075110 -77.686859 3 35163ft 417kts
25-Jun-16 12:11 36.189650 -77.668836 3 35183ft 416kts
25-Jun-16 12:12 36.303868 -77.650935 3 35182ft 416kts
25-Jun-16 12:13 36.418431 -77.632930 3 35182ft 416kts
25-Jun-16 12:14 36.532807 -77.614897 3 35188ft 416kts
25-Jun-16 12:15 36.644855 -77.597180 3 35215ft 416kts
25-Jun-16 12:16 36.757819 -77.579262 3 35216ft 416kts
25-Jun-16 12:17 36.872269 -77.561056 3 35216ft 415kts
25-Jun-16 12:18 36.985946 -77.542924 3 34972ft 414kts
25-Jun-16 12:19 37.092263 -77.525905 3 33963ft 408kts
25-Jun-16 12:20 37.204347 -77.507932 3 30906ft 411kts
25-Jun-16 12:21 37.317706 -77.489678 4 27776ft 412kts
25-Jun-16 12:22 37.427381 -77.471954 4 25589ft 390kts
25-Jun-16 12:23 37.535125 -77.454519 4 23368ft 388kts
25-Jun-16 12:24 37.636745 -77.432309 11 21452ft 367kts
25-Jun-16 12:25 37.734404 -77.402318 11 19297ft 356kts
25-Jun-16 12:26 37.829314 -77.373084 11 17442ft 355kts
25-Jun-16 12:27 37.907432 -77.348873 12 16023ft 336kts
25-Jun-16 12:28 37.999216 -77.320345 12 14656ft 347kts
25-Jun-16 12:29 38.091385 -77.291834 12 13268ft 338kts
25-Jun-16 12:30 38.178485 -77.264489 12 11949ft 310kts
25-Jun-16 12:31 38.258938 -77.238018 13 10630ft 289kts
25-Jun-16 12:32 38.335904 -77.212207 25 8884ft 287kts
25-Jun-16 12:33 38.396197 -77.148611 40 7241ft 282kts
25-Jun-16 12:34 38.453422 -77.084412 41 5934ft 266kts
25-Jun-16 12:35 38.507535 -77.023357 41 4715ft 253kts
25-Jun-16 12:36 38.562420 -77.042984 281 3493ft 247kts
25-Jun-16 12:37 38.523407 -77.089167 151 2459ft 217kts
25-Jun-16 12:38 38.533648 -77.035272 22 2507ft 222kts
25-Jun-16 12:39 38.594485 -77.021297 3 2468ft 223kts
25-Jun-16 12:40 38.656694 -77.021334 359 2471ft 224kts
25-Jun-16 12:41 38.718424 -77.024548 357 2479ft 207kts
25-Jun-16 12:42 38.768612 -77.029434 357 1427ft 158kts
25-Jun-16 12:43 38.808961 -77.033710 359 624ft 139kts
25-Jun-16 12:44 38.848087 -77.037410 354 22ft 137kts
25-Jun-16 12:45 38.857818 -77.039804 175 22ft 15kts
25-Jun-16 12:46 38.854567 -77.040777 241 22ft 2kts
25-Jun-16 12:47 38.843436 -77.036967 356 31ft 145kts
25-Jun-16 12:48 38.849021 -77.037513 354 22ft 132kts
25-Jun-16 12:49 38.856323 -77.038224 357 22ft 73kts
25-Jun-16 12:50 38.856644 -77.039677 174 22ft 16kts
25-Jun-16 12:51 38.855692 -77.039755 222 22ft 14kts

Navigation Log

Ident Type
Flight plan parsing failed, navigation log unavailable